Petersburg, AK

9:27 AM AKST on February 12, 2016 (GMT -0900)
Johnson Petersburg | | Change Station
CLOSE
Current Station
Airport
Location: Petersburg,
Elevation: 0 ft
Nearby Weather Stations

Elev 0 ft 56.82 °N, 132.97 °W | Updated 11 minutes ago

Mostly Cloudy
Mostly Cloudy
43 °F
Feels Like 40 °F
N
5
Wind Variable Wind from ENE

Today
High -- | Low -- °F
--% Chance of Precip.
Yesterday
High -- | Low -- °F
Precip. -- in
Pressure 29.78 in
Visibility 10.0 miles
Clouds Scattered Clouds 2000 ft
Mostly Cloudy 3100 ft
Mostly Cloudy 3700 ft
Windchill 40 °F
Dew Point 37 °F
Humidity 81%
Rainfall 0.25 in
Snow Depth Not available.
7:28 AM 4:47 PM
Waxing Crescent, 22% visible
METAR PAPG 121816Z 07004KT 10SM SCT020 BKN031 BKN037 06/03 A2978 RMK AO1 VCSH
Pressure 29.78 in
Visibility 10.0 miles
Clouds Scattered Clouds 2000 ft
Mostly Cloudy 3100 ft
Mostly Cloudy 3700 ft
Windchill 40 °F
Dew Point 37 °F
Humidity 81%
Rainfall 0.25 in
Snow Depth Not available.
7:28 AM 4:47 PM
Waxing Crescent, 22% visible
METAR PAPG 121816Z 07004KT 10SM SCT020 BKN031 BKN037 06/03 A2978 RMK AO1 VCSH

10-Day Weather Forecast

Almanac

Astronomy

Feb. 12, 2016 Rise Set
Actual Time
Civil Twilight
Nautical Twilight
Astronomical Twilight
Moon
Length of Visible Light
Length of Day
Tomorrow will be .
, % of the Moon is Illuminated

Today's Extremes

State Highs State Lows

Community

WunderPhotos

Upload Photos

1,892,364 photos uploaded!

WunderBlog® & News

Nearby

Air Quality

  Air Quality AQ Index Pollutant
Not available.

Snow Depth

Station Depth Elevation

Earthquake Activity

City Distance Mag. Time & Date
Minimum magnitude displayed is 2.5.

Coastal Water Temperatures

Place Temperature

Stations

Nearby Weather Stations

Station Location Temp. Windchill Dew Point Humidity Wind Precip. Elev Updated Type
                   

Watches & Warnings

There are currently no watches in effect.